KEWN/EWN METAR and TAF weather

Enter ICAO airport designator
Station Type Date Time Source
KEWN METAR 2019/02/17 06:54 UTC NOAA

KEWN 170654Z AUTO 02006KT 10SM OVC026 04/02 A3001 RMK AO2 SLP161 T00390017


Station Type Date Time Source
KEWN Decoded METAR 2019/02/17 06:54 UTC NOAA

New Bern, Craven County Regional Airport, NC, United States (KEWN) 35-04-03N 077-02-50W 3M
Feb 17, 2019 - 01:54 AM EST / 2019.02.17 0654 UTC
Wind: from the NNE (020 degrees) at 7 MPH (6 KT):0
Visibility: 10 mile(s):0
Sky conditions: overcast
Temperature: 39.0 F (3.9 C)
Dew Point: 35.1 F (1.7 C)
Relative Humidity: 85%
Pressure (altimeter): 30.01 in. Hg (1016 hPa)
ob: KEWN 170654Z AUTO 02006KT 10SM OVC026 04/02 A3001 RMK AO2 SLP161 T00390017
cycle: 7

Station Type Date Time Source
KEWN TAF 2019/02/17 06:30 UTC NOAA

TAF KEWN 170527Z 1706/1806 02010KT P6SM OVC025
FM171800 VRB03KT P6SM BKN025
FM180000 12005KT 6SM -RA OVC015
FM180200 13005KT 6SM -RA OVC007
FM180400 16005KT 6SM -RA OVC003


Example: see airport list